KAPC/APC METAR and TAF weather

Enter ICAO airport designator
Station Type Date Time Source
KAPC METAR 2018/01/24 06:54 UTC NOAA

KAPC 240654Z AUTO 02005KT 9SM CLR 05/04 A3018 RMK AO2 SLP210 T00500044


Station Type Date Time Source
KAPC Decoded METAR 2018/01/24 06:54 UTC NOAA

NAPA COUNTY AIRPORT, CA, United States (KAPC) 38-12N 122-17W 13M
Jan 24, 2018 - 01:54 AM EST / 2018.01.24 0654 UTC
Wind: from the NNE (020 degrees) at 6 MPH (5 KT):0
Visibility: 9 mile(s):0
Sky conditions: clear
Temperature: 41.0 F (5.0 C)
Dew Point: 39.9 F (4.4 C)
Relative Humidity: 95%
Pressure (altimeter): 30.18 in. Hg (1022 hPa)
ob: KAPC 240654Z AUTO 02005KT 9SM CLR 05/04 A3018 RMK AO2 SLP210 T00500044
cycle: 7

Station Type Date Time Source
KAPC TAF 2016/02/08 18:39 UTC NOAA

TAF KAPC 081738Z 0818/0918 08008KT P6SM SKC
FM081900 09012KT P6SM SKC
FM090000 07007KT P6SM SKC
FM090600 04004KT P6SM SKC


Example: see airport list